createdAt,value
2022-11-24T00:04:34.362Z,14.10
2022-11-24T00:09:31.873Z,13.88
2022-11-24T00:14:27.356Z,13.95
2022-11-24T00:19:20.770Z,13.73
2022-11-24T00:24:15.261Z,13.00
2022-11-24T00:29:10.334Z,12.15
2022-11-24T00:34:06.240Z,12.85
2022-11-24T00:39:01.065Z,15.52
2022-11-24T00:43:54.617Z,17.80
2022-11-24T00:53:42.746Z,14.02
2022-11-24T01:03:29.700Z,13.73
2022-11-24T01:08:23.104Z,14.18
2022-11-24T01:13:17.252Z,13.00
2022-11-24T01:18:11.741Z,13.90
2022-11-24T01:23:05.591Z,11.45
2022-11-24T01:27:59.552Z,11.40
2022-11-24T01:32:54.467Z,12.20
2022-11-24T01:37:48.608Z,10.80
2022-11-24T01:47:41.852Z,10.75
2022-11-24T01:52:37.030Z,11.05
2022-11-24T01:57:35.102Z,10.65
2022-11-24T02:02:30.618Z,10.18
2022-11-24T02:07:24.727Z,10.13
2022-11-24T02:12:18.848Z,10.20
2022-11-24T02:17:12.903Z,10.43
2022-11-24T02:22:06.405Z,9.75
2022-11-24T02:27:00.381Z,8.82
2022-11-24T02:31:56.222Z,10.23
2022-11-24T02:36:50.206Z,10.55
2022-11-24T02:41:51.967Z,9.15
2022-11-24T02:46:45.192Z,8.55
2022-11-24T02:51:38.748Z,9.13
2022-11-24T02:56:33.067Z,8.55
2022-11-24T03:01:27.221Z,8.07
2022-11-24T03:06:20.897Z,9.52
2022-11-24T03:11:14.754Z,9.82
2022-11-24T03:16:11.557Z,8.95
2022-11-24T03:21:06.242Z,8.48
2022-11-24T03:26:13.426Z,9.52
2022-11-24T03:31:08.300Z,9.38
2022-11-24T03:36:01.924Z,8.05
2022-11-24T03:40:55.902Z,7.03
2022-11-24T03:45:50.687Z,5.45
2022-11-24T03:50:45.642Z,6.72
2022-11-24T03:55:39.495Z,8.40
2022-11-24T04:05:26.102Z,12.60
2022-11-24T04:10:20.451Z,10.50
2022-11-24T04:15:16.730Z,9.25
2022-11-24T04:20:13.158Z,8.52
2022-11-24T04:25:08.351Z,5.90
2022-11-24T04:30:01.785Z,4.55
2022-11-24T04:34:55.396Z,3.40
2022-11-24T04:39:48.448Z,3.20
2022-11-24T04:44:42.308Z,3.47
2022-11-24T04:49:35.986Z,3.58
2022-11-24T04:54:30.334Z,3.15
2022-11-24T04:59:24.389Z,3.40
2022-11-24T05:04:21.328Z,3.55
2022-11-24T05:09:18.385Z,3.83
2022-11-24T05:14:12.592Z,3.15
2022-11-24T05:19:06.194Z,3.65
2022-11-24T05:24:00.633Z,3.10
2022-11-24T05:28:54.233Z,3.53
2022-11-24T05:33:48.472Z,3.25
2022-11-24T05:38:46.448Z,3.25
2022-11-24T05:43:40.339Z,3.88
2022-11-24T05:48:34.573Z,2.80
2022-11-24T05:53:27.655Z,2.85
2022-11-24T05:58:21.160Z,2.80
2022-11-24T06:03:15.344Z,3.70
2022-11-24T06:08:09.253Z,3.63
2022-11-24T06:17:59.677Z,9.13
2022-11-24T06:22:53.094Z,6.13
2022-11-24T06:27:47.293Z,4.72
2022-11-24T06:32:49.291Z,5.10
2022-11-24T06:37:43.249Z,4.57
2022-11-24T06:42:37.583Z,4.68
2022-11-24T06:47:31.405Z,5.07
2022-11-24T06:52:25.735Z,4.13
2022-11-24T06:57:19.839Z,3.95
2022-11-24T07:02:14.481Z,3.95
2022-11-24T07:07:08.688Z,4.32
2022-11-24T07:12:02.894Z,3.97
2022-11-24T07:21:50.328Z,14.25
2022-11-24T07:31:37.888Z,14.43
2022-11-24T07:36:31.736Z,9.18
2022-11-24T07:41:24.770Z,7.40
2022-11-24T07:46:19.853Z,8.50
2022-11-24T07:51:14.165Z,7.70
2022-11-24T07:56:09.061Z,7.13
2022-11-24T08:01:17.395Z,4.38
2022-11-24T08:06:33.901Z,5.53
2022-11-24T08:11:25.796Z,6.88
2022-11-24T08:16:21.287Z,5.45
2022-11-24T08:21:15.674Z,4.90
2022-11-24T08:26:16.753Z,4.88
2022-11-24T08:31:13.647Z,4.57
2022-11-24T08:36:12.061Z,4.90
2022-11-24T08:41:08.141Z,4.57
2022-11-24T08:46:07.102Z,5.57
2022-11-24T08:51:06.143Z,8.45
2022-11-24T08:56:04.258Z,7.72
2022-11-24T09:01:07.988Z,6.72
2022-11-24T09:06:02.475Z,6.53
2022-11-24T09:11:06.194Z,6.35
2022-11-24T09:16:13.300Z,5.97
2022-11-24T09:21:25.033Z,5.70
2022-11-24T09:26:24.290Z,5.53
2022-11-24T09:31:18.927Z,5.72
2022-11-24T09:36:12.833Z,5.50
2022-11-24T09:41:18.217Z,4.95
2022-11-24T09:46:21.508Z,4.93
2022-11-24T09:51:16.557Z,4.13
2022-11-24T09:56:23.999Z,4.47
2022-11-24T10:01:31.075Z,6.32
2022-11-24T10:06:35.055Z,8.55
2022-11-24T10:11:40.668Z,7.70
2022-11-24T10:16:51.335Z,7.75
2022-11-24T10:22:18.741Z,8.80
2022-11-24T10:27:24.539Z,7.60
2022-11-24T10:32:28.426Z,7.90
2022-11-24T10:37:31.442Z,7.38
2022-11-24T10:42:30.367Z,8.43
2022-11-24T10:47:29.896Z,8.30
2022-11-24T10:52:23.058Z,9.40
2022-11-24T10:57:29.147Z,8.70
2022-11-24T11:02:38.651Z,9.45
2022-11-24T11:07:32.023Z,8.48
2022-11-24T11:12:43.747Z,8.55
2022-11-24T11:17:40.229Z,8.55
2022-11-24T11:22:37.216Z,9.07
2022-11-24T11:27:31.333Z,9.13
2022-11-24T11:38:02.437Z,8.75
2022-11-24T11:43:03.844Z,8.20
2022-11-24T11:48:06.495Z,9.85
2022-11-24T11:53:19.902Z,12.27
2022-11-24T11:58:16.079Z,9.05
2022-11-24T12:03:21.482Z,10.07
2022-11-24T12:08:21.554Z,9.07
2022-11-24T12:13:35.447Z,8.93
2022-11-24T12:18:58.340Z,9.27
2022-11-24T12:24:19.261Z,10.20
2022-11-24T12:29:47.066Z,9.75
2022-11-24T12:34:51.453Z,12.10
2022-11-24T12:40:01.442Z,12.05
2022-11-24T12:45:01.772Z,10.68
2022-11-24T12:50:22.233Z,9.35
2022-11-24T12:55:55.478Z,9.18
2022-11-24T13:01:25.366Z,9.90
2022-11-24T13:06:49.284Z,8.23
2022-11-24T13:12:14.145Z,8.32
2022-11-24T13:18:05.107Z,8.70
2022-11-24T13:23:41.511Z,9.43
2022-11-24T13:29:06.133Z,12.85
2022-11-24T13:34:46.098Z,11.40
2022-11-24T13:40:14.618Z,11.38
2022-11-24T13:45:39.685Z,11.13
2022-11-24T13:50:51.377Z,11.23
2022-11-24T13:56:13.716Z,11.30
2022-11-24T14:01:26.717Z,9.63
2022-11-24T14:06:29.765Z,11.63
2022-11-24T14:11:22.928Z,11.30
2022-11-24T14:21:21.722Z,10.18
2022-11-24T14:26:25.541Z,10.82
2022-11-24T14:31:23.274Z,10.98
2022-11-24T14:36:18.331Z,11.60
2022-11-24T14:41:28.735Z,10.77
2022-11-24T14:46:22.929Z,10.38
2022-11-24T14:51:25.109Z,11.90
2022-11-24T14:56:28.434Z,11.00
2022-11-24T15:01:27.679Z,10.07
2022-11-24T15:06:22.489Z,10.07
2022-11-24T15:11:15.810Z,10.55
2022-11-24T15:16:16.382Z,9.32
2022-11-24T15:21:15.596Z,9.18
2022-11-24T15:26:12.046Z,9.68
2022-11-24T15:31:13.937Z,11.43
2022-11-24T15:36:08.907Z,12.07
2022-11-24T15:41:03.045Z,24.80
2022-11-24T15:45:57.225Z,17.52
2022-11-24T15:50:51.263Z,15.35
2022-11-24T15:55:44.605Z,16.65
2022-11-24T16:00:38.196Z,17.55
2022-11-24T16:05:32.966Z,18.35
2022-11-24T16:10:29.264Z,15.52
2022-11-24T16:15:23.188Z,16.42
2022-11-24T16:20:17.651Z,18.38
2022-11-24T16:25:11.519Z,20.38
2022-11-24T16:30:07.516Z,20.85
2022-11-24T16:35:01.713Z,21.13
2022-11-24T16:39:55.239Z,26.02
2022-11-24T16:44:49.455Z,24.92
2022-11-24T16:49:43.751Z,19.15
2022-11-24T16:54:38.057Z,18.85
2022-11-24T16:59:35.335Z,19.40
2022-11-24T17:04:28.578Z,42.67
2022-11-24T17:09:23.016Z,39.22
2022-11-24T17:14:17.103Z,28.88
2022-11-24T17:19:11.542Z,25.90
2022-11-24T17:24:07.843Z,22.15
2022-11-24T17:29:02.298Z,21.25
2022-11-24T17:33:57.958Z,21.33
2022-11-24T17:38:52.712Z,23.80
2022-11-24T17:44:09.057Z,24.52
2022-11-24T17:49:03.900Z,28.95
2022-11-24T17:53:58.366Z,30.23
2022-11-24T17:59:01.847Z,30.27
2022-11-24T18:03:55.736Z,33.17
2022-11-24T18:13:58.485Z,46.08
2022-11-24T18:19:08.923Z,45.90
2022-11-24T18:24:03.745Z,39.20
2022-11-24T18:28:57.687Z,34.95
2022-11-24T18:33:50.666Z,34.25
2022-11-24T18:38:44.478Z,46.05
2022-11-24T18:43:38.560Z,44.47
2022-11-24T18:48:31.807Z,43.10
2022-11-24T18:53:27.171Z,36.25
2022-11-24T18:58:20.659Z,36.30
2022-11-24T19:03:14.849Z,37.97
2022-11-24T19:08:08.941Z,36.97
2022-11-24T19:13:03.171Z,35.47
2022-11-24T19:17:56.689Z,35.58
2022-11-24T19:22:50.659Z,33.25
2022-11-24T19:27:45.012Z,29.00
2022-11-24T19:32:39.029Z,35.10
2022-11-24T19:37:33.408Z,31.08
2022-11-24T19:42:27.273Z,18.92
2022-11-24T19:47:21.607Z,19.40
2022-11-24T19:52:15.980Z,21.13
2022-11-24T19:57:10.286Z,19.25
2022-11-24T20:02:04.697Z,21.10
2022-11-24T20:06:59.507Z,22.80
2022-11-24T20:11:55.101Z,22.30
2022-11-24T20:16:49.066Z,24.88
2022-11-24T20:21:46.798Z,25.45
2022-11-24T20:26:43.092Z,24.60
2022-11-24T20:31:39.801Z,22.58
2022-11-24T20:36:35.895Z,19.40
2022-11-24T20:41:31.345Z,30.58
2022-11-24T20:46:27.583Z,22.67
2022-11-24T20:51:23.144Z,18.92
2022-11-24T20:56:22.525Z,15.18
2022-11-24T21:01:20.127Z,17.50
2022-11-24T21:06:14.973Z,13.93
2022-11-24T21:11:11.531Z,13.02
2022-11-24T21:16:17.136Z,12.85
2022-11-24T21:21:10.987Z,13.77
2022-11-24T21:26:10.301Z,15.35
2022-11-24T21:31:13.141Z,15.65
2022-11-24T21:36:06.441Z,13.10
2022-11-24T21:41:02.088Z,13.18
2022-11-24T21:45:56.338Z,14.52
2022-11-24T21:50:50.070Z,15.82
2022-11-24T21:55:44.384Z,18.63
2022-11-24T22:00:38.573Z,16.35
2022-11-24T22:05:32.717Z,18.02
2022-11-24T22:10:26.972Z,19.13
2022-11-24T22:15:20.948Z,19.92
2022-11-24T22:20:15.254Z,20.38
2022-11-24T22:25:10.844Z,19.55
2022-11-24T22:30:06.645Z,19.65
2022-11-24T22:35:01.175Z,23.10
2022-11-24T22:39:55.667Z,22.05
2022-11-24T22:44:49.422Z,23.15
2022-11-24T22:49:42.634Z,18.80
2022-11-24T22:54:36.431Z,17.48
2022-11-24T22:59:30.575Z,17.58
2022-11-24T23:04:24.736Z,15.88
2022-11-24T23:09:19.183Z,16.50
2022-11-24T23:14:16.886Z,16.40
2022-11-24T23:19:10.214Z,15.43
2022-11-24T23:24:06.424Z,15.43
2022-11-24T23:29:00.067Z,29.02
2022-11-24T23:33:53.263Z,17.50
2022-11-24T23:38:47.459Z,17.45
2022-11-24T23:43:42.786Z,17.92
2022-11-24T23:48:37.489Z,16.75
2022-11-24T23:53:33.833Z,15.07
2022-11-24T23:58:27.720Z,11.55
